Normandie — FNNO — position and weather

sailwx.info

Track history (hours):
 
Tides and Currents Weather Stations Pressure Air Temp Water Temp Dewpoint Dewpoint Depression Visibility Wind Speed Wind Dir Waves Ship Positions

Normandie

Operator: Brittany Ferries

Last reported at 2018-May-23 22:30 UTC. Time now 2018-May-23 22:32 UTC.
Position N 49°17' W 000°15'.

Length 161 m; beam 27 m.

Type: Passenger vessel. MMSI: 227273000.

Date/timePositionNaut miles runAvg speedWind from/ knotsBaromVisibWave heightAir tempDewpointWater temp
2018-May-23 22:30N 49°17' W 000°15'0 0.0
2018-May-23 22:01N 49°17' W 000°15'0 0.0
2018-May-23 21:31N 49°17' W 000°15'0 0.0
2018-May-23 21:01N 49°17' W 000°15'0 0.0
2018-May-23 20:30N 49°17' W 000°15'0 0.0
2018-May-23 20:01N 49°17' W 000°15'0 0.0
2018-May-23 19:31N 49°17' W 000°15'0 0.0
2018-May-23 19:01N 49°17' W 000°15'0 0.0
2018-May-23 18:30N 49°17' W 000°15'0 0.0
2018-May-23 18:00N 49°17' W 000°15'0 0.0
2018-May-23 17:30N 49°17' W 000°15'0 0.0
2018-May-23 17:00N 49°17' W 000°15'0 0.0
2018-May-23 16:30N 49°17' W 000°15'0 0.0
2018-May-23 16:00N 49°17' W 000°15'0 0.0
2018-May-23 15:31N 49°17' W 000°15'0 0.0
2018-May-23 15:00N 49°17' W 000°15'0 0.0
2018-May-23 14:30N 49°17' W 000°15'0 0.0
2018-May-23 14:00N 49°17' W 000°15'0 0.0
2018-May-23 13:30N 49°17' W 000°15'0 0.2
2018-May-23 13:01N 49°17' W 000°15'611.1
2018-May-23 12:31N 49°23' W 000°14'714.1
2018-May-23 12:01N 49°29' W 000°17'1019.5
2018-May-23 11:30N 49°39' W 000°22'1019.4
2018-May-23 11:00N 49°48' W 000°27'1019.4
2018-May-23 10:31N 49°57' W 000°33'1019.0
2018-May-23 10:00N 50°06' W 000°39'919.1
2018-May-23 09:31N 50°14' W 000°44'1019.6
2018-May-23 09:00N 50°24' W 000°49'1019.3
2018-May-23 08:30N 50°33' W 000°54'1019.2
2018-May-23 08:00N 50°42' W 001°00'714.5
2018-May-23 07:30N 50°47' W 001°07'1 2.6
2018-May-23 07:00N 50°49' W 001°06'0 0.0
2018-May-23 06:30N 50°49' W 001°06'0 0.0
2018-May-23 06:00N 50°49' W 001°06'0 0.2
2018-May-23 05:31N 50°49' W 001°06'510.0
2018-May-23 05:01N 50°44' W 001°04'816.9
2018-May-23 04:31N 50°36' W 000°57'815.7
2018-May-23 04:00N 50°29' W 000°52'915.7
2018-May-23 03:26N 50°21' W 000°48'715.8
2018-May-23 03:00N 50°14' W 000°47'714.4
2018-May-23 02:30N 50°07' W 000°43'510.3
2018-May-23 02:00N 50°02' W 000°41'510.3
2018-May-23 01:30N 49°57' W 000°39'510.1
2018-May-23 01:00N 49°52' W 000°37'510.3
2018-May-23 00:30N 49°48' W 000°33'510.8
2018-May-23 00:00N 49°43' W 000°29'511.0
2018-May-22 23:30N 49°38' W 000°25'611.1
2018-May-22 23:00N 49°33' W 000°21'611.1
2018-May-22 22:30N 49°28' W 000°19'611.2
2018-May-22 22:00N 49°23' W 000°16'510.7
2018-May-22 21:30N 49°17' W 000°15'0 0.2
2018-May-22 21:00N 49°17' W 000°15'0 0.0
2018-May-22 20:30N 49°17' W 000°15'0 0.0
2018-May-22 20:00N 49°17' W 000°15'0 0.0
2018-May-22 19:30N 49°17' W 000°15'3 6.7
2018-May-22 19:00N 49°21' W 000°14'918.8
2018-May-22 18:31N 49°30' W 000°18'1019.7
2018-May-22 18:00N 49°39' W 000°23'1019.9
2018-May-22 17:30N 49°49' W 000°27'1020.0
2018-May-22 17:00N 49°58' W 000°33'1020.1
2018-May-22 16:30N 50°07' W 000°38'1020.1
2018-May-22 16:00N 50°17' W 000°45'1020.2
2018-May-22 15:30N 50°26' W 000°51'1019.8
2018-May-22 15:00N 50°35' W 000°56'917.7
2018-May-22 14:31N 50°43' W 001°03'612.0
2018-May-22 14:00N 50°49' W 001°07'1 1.1
2018-May-22 13:30N 50°49' W 001°06'0 0.0
2018-May-22 13:00N 50°49' W 001°06'0 0.0
2018-May-22 12:30N 50°49' W 001°06'0 0.8
2018-May-22 12:00N 50°49' W 001°06'611.4
2018-May-22 11:30N 50°44' W 001°02'816.4
2018-May-22 11:00N 50°36' W 000°57'917.8
2018-May-22 10:30N 50°28' W 000°50'1018.0
2018-May-22 09:58N 50°19' W 000°45'918.8
2018-May-22 09:30N 50°11' W 000°40'1019.6
2018-May-22 09:00N 50°01' W 000°37'1020.1
2018-May-22 08:30N 49°52' W 000°33'1020.1
2018-May-22 08:00N 49°42' W 000°29'1020.1
2018-May-22 07:31N 49°33' W 000°21'1020.0
2018-May-22 07:00N 49°24' W 000°16'713.2
2018-May-22 06:30N 49°17' W 000°15'0 0.0
2018-May-22 06:00N 49°17' W 000°15'0 0.0
2018-May-22 05:30N 49°17' W 000°15'0 0.0
2018-May-22 05:00N 49°17' W 000°15'0 0.3
2018-May-22 04:31N 49°17' W 000°15'714.8
2018-May-22 04:00N 49°25' W 000°15'918.3
2018-May-22 03:30N 49°33' W 000°20'917.1
2018-May-22 03:00N 49°41' W 000°25'816.3
2018-May-22 02:30N 49°49' W 000°29'816.2
2018-May-22 02:00N 49°57' W 000°33'816.0
2018-May-22 01:30N 50°04' W 000°37'815.9
2018-May-22 01:00N 50°12' W 000°41'816.0
2018-May-22 00:30N 50°19' W 000°46'815.8
2018-May-21 23:59N 50°27' W 000°51'816.0
2018-May-21 23:30N 50°34' W 000°56'715.0
2018-May-21 23:00N 50°41' W 000°58'713.1
2018-May-21 22:30N 50°46' W 001°05'3 6.0
2018-May-21 22:00N 50°49' W 001°06'0 0.0
2018-May-21 21:30N 50°49' W 001°06'0 0.0
2018-May-21 21:00N 50°49' W 001°06'0 0.0
2018-May-21 20:30N 50°49' W 001°06'1 1.9
2018-May-21 20:00N 50°48' W 001°07'612.5
2018-May-21 19:30N 50°43' W 001°01'917.0
2018-May-21 19:00N 50°35' W 000°57'1019.5
2018-May-21 18:30N 50°25' W 000°54'1019.4
2018-May-21 18:00N 50°17' W 000°47'1019.7
2018-May-21 17:30N 50°08' W 000°40'1019.8
2018-May-21 17:01N 49°58' W 000°37'1020.0
2018-May-21 16:30N 49°49' W 000°31'1019.8
2018-May-21 16:01N 49°40' W 000°25'1019.4
2018-May-21 15:30N 49°31' W 000°20'918.9
2018-May-21 15:00N 49°22' W 000°15'4 8.8
2018-May-21 14:30N 49°17' W 000°15'0 0.0
2018-May-21 14:00N 49°17' W 000°15'0 0.0
2018-May-21 13:30N 49°17' W 000°15'0 0.0
2018-May-21 13:00N 49°17' W 000°15'2 4.4
2018-May-21 12:31N 49°20' W 000°15'1019.2
2018-May-21 12:01N 49°29' W 000°17'1020.4
2018-May-21 11:31N 49°38' W 000°24'1020.7
2018-May-21 11:01N 49°47' W 000°31'1020.5
2018-May-21 10:31N 49°57' W 000°39'1020.2
2018-May-21 10:01N 50°06' W 000°45'1019.8
2018-May-21 09:29N 50°15' W 000°51'1519.6
2018-May-21 08:42N 50°30' W 000°60'419.7
2018-May-21 08:31N 50°33' W 001°01'918.0
2018-May-21 08:00N 50°42' W 000°59'713.7
2018-May-21 07:30N 50°47' W 001°06'2 3.0
2018-May-21 07:00N 50°49' W 001°06'0 0.0
2018-May-21 06:30N 50°49' W 001°06'0 0.0
2018-May-21 06:00N 50°49' W 001°06'0 0.2
2018-May-21 05:30N 50°49' W 001°06'5 9.6
2018-May-21 05:00N 50°44' W 001°04'816.3
2018-May-21 04:30N 50°37' W 000°57'815.2
2018-May-21 04:01N 50°30' W 000°51'815.5
2018-May-21 03:31N 50°23' W 000°46'815.7
2018-May-21 03:01N 50°16' W 000°44'815.6
2018-May-21 02:31N 50°09' W 000°40'815.4
2018-May-21 02:00N 50°01' W 000°35'815.3
2018-May-21 01:30N 49°54' W 000°30'815.4
2018-May-21 01:00N 49°47' W 000°27'713.7
2018-May-21 00:30N 49°40' W 000°24'510.1
2018-May-21 00:01N 49°35' W 000°23'510.5
2018-May-20 23:31N 49°30' W 000°21'510.2
2018-May-20 23:01N 49°26' W 000°18'5 9.9
2018-May-20 22:31N 49°21' W 000°15'4 7.6
2018-May-20 22:00N 49°17' W 000°15'0 0.1
2018-May-20 21:30N 49°17' W 000°15'0 0.0
2018-May-20 21:01N 49°17' W 000°15'0 0.0
2018-May-20 20:31N 49°17' W 000°15'0 0.0
2018-May-20 20:01N 49°17' W 000°15'0 0.0
2018-May-20 19:31N 49°17' W 000°15'3 5.0
2018-May-20 19:00N 49°20' W 000°14'917.8
2018-May-20 18:30N 49°28' W 000°20'919.0
2018-May-20 18:00N 49°37' W 000°23'918.7
2018-May-20 17:30N 49°46' W 000°28'918.4
2018-May-20 17:00N 49°55' W 000°33'918.4
2018-May-20 16:30N 50°03' W 000°38'918.5
2018-May-20 16:00N 50°12' W 000°42'918.7
2018-May-20 15:30N 50°21' W 000°47'1019.1
2018-May-20 15:00N 50°30' W 000°53'918.8
2018-May-20 14:30N 50°38' W 000°59'917.4
2018-May-20 14:00N 50°46' W 001°05'3 5.3
2018-May-20 13:30N 50°49' W 001°06'0 0.0
2018-May-20 13:00N 50°49' W 001°06'0 0.0
2018-May-20 12:30N 50°49' W 001°06'1 1.1
2018-May-20 12:00N 50°49' W 001°07'613.0
2018-May-20 11:30N 50°43' W 001°01'918.2
2018-May-20 11:00N 50°34' W 000°57'1118.6
2018-May-20 10:26N 50°25' W 000°50'818.6
2018-May-20 10:00N 50°17' W 000°46'1019.0
2018-May-20 09:30N 50°08' W 000°40'1019.4
2018-May-20 09:00N 49°59' W 000°36'1019.5
2018-May-20 08:30N 49°49' W 000°32'1019.8
2018-May-20 08:00N 49°40' W 000°27'1019.9
2018-May-20 07:30N 49°31' W 000°21'1020.0
2018-May-20 07:00N 49°22' W 000°15'5 9.0
2018-May-20 06:30N 49°17' W 000°15'0 0.0
2018-May-20 06:00N 49°17' W 000°15'0 0.0
2018-May-20 05:30N 49°17' W 000°15'0 0.0
2018-May-20 05:00N 49°17' W 000°15'0 0.3
2018-May-20 04:31N 49°17' W 000°15'611.9
2018-May-20 04:00N 49°23' W 000°14'815.3
2018-May-20 03:30N 49°30' W 000°20'815.7
2018-May-20 03:00N 49°37' W 000°25'815.2
2018-May-20 02:30N 49°45' W 000°27'815.3
2018-May-20 02:00N 49°52' W 000°31'815.6
2018-May-20 01:31N 49°59' W 000°35'815.8
2018-May-20 01:00N 50°07' W 000°39'815.7
2018-May-20 00:30N 50°14' W 000°43'1015.4
2018-May-19 23:51N 50°23' W 000°49'615.7
2018-May-19 23:28N 50°29' W 000°53'715.4
2018-May-19 23:00N 50°35' W 000°57'714.9
2018-May-19 22:30N 50°42' W 001°01'713.2
2018-May-19 22:00N 50°48' W 001°07'1 2.0
2018-May-19 21:30N 50°49' W 001°06'0 0.0
2018-May-19 21:01N 50°49' W 001°06'0 0.0
2018-May-19 20:31N 50°49' W 001°06'1 1.1
2018-May-19 20:00N 50°49' W 001°07'611.5
2018-May-19 19:30N 50°44' W 001°02'816.4
2018-May-19 19:01N 50°36' W 000°57'917.5
2018-May-19 18:30N 50°28' W 000°53'917.4
2018-May-19 18:00N 50°19' W 000°50'917.8
2018-May-19 17:30N 50°11' W 000°46'918.2
2018-May-19 17:00N 50°02' W 000°40'918.4
2018-May-19 16:30N 49°54' W 000°34'918.3
2018-May-19 16:01N 49°45' W 000°29'918.8
2018-May-19 15:31N 49°37' W 000°24'918.3
2018-May-19 15:00N 49°28' W 000°18'917.8
2018-May-19 14:30N 49°20' W 000°14'2 4.6
2018-May-19 14:01N 49°17' W 000°15'0 0.0
2018-May-19 13:30N 49°17' W 000°15'0 0.0
2018-May-19 13:01N 49°17' W 000°15'3 5.2
2018-May-19 12:30N 49°20' W 000°14'918.3
2018-May-19 12:00N 49°29' W 000°17'918.2
2018-May-19 11:31N 49°37' W 000°22'918.6
2018-May-19 11:00N 49°46' W 000°29'918.8
2018-May-19 10:30N 49°54' W 000°34'1020.6
2018-May-19 10:00N 50°03' W 000°42'1119.9
2018-May-19 09:27N 50°14' W 000°47'919.8
2018-May-19 09:01N 50°22' W 000°52'1019.7
2018-May-19 08:29N 50°32' W 000°55'918.9
2018-May-19 08:01N 50°41' W 000°58'815.7
2018-May-19 07:31N 50°47' W 001°06'2 3.6
2018-May-19 07:00N 50°49' W 001°06'0 0.0
2018-May-19 06:30N 50°49' W 001°06'0 0.0
2018-May-19 06:00N 50°49' W 001°06'0 0.5
2018-May-19 05:30N 50°49' W 001°06'5 9.9
2018-May-19 05:00N 50°44' W 001°04'815.8
2018-May-19 04:31N 50°37' W 000°58'816.2
2018-May-19 04:00N 50°30' W 000°53'816.0
2018-May-19 03:30N 50°22' W 000°48'816.0
2018-May-19 03:00N 50°15' W 000°44'612.2
2018-May-19 02:31N 50°09' W 000°41'611.6
2018-May-19 02:00N 50°04' W 000°37'611.2
2018-May-19 01:29N 49°58' W 000°34'510.9
2018-May-19 01:00N 49°53' W 000°31'510.8
2018-May-19 00:31N 49°48' W 000°29'510.7
2018-May-19 00:00N 49°43' W 000°26'510.7
2018-May-18 23:31N 49°38' W 000°24'510.5
2018-May-18 23:00N 49°33' W 000°21'510.2
2018-May-18 22:30N 49°28' W 000°17'510.2
2018-May-18 22:00N 49°24' W 000°14'510.1
2018-May-18 21:30N 49°19' W 000°15'1 2.6
2018-May-18 21:00N 49°17' W 000°15'0 0.0
2018-May-18 20:30N 49°17' W 000°15'0 0.0
2018-May-18 20:00N 49°17' W 000°15'0 0.2
2018-May-18 19:30N 49°17' W 000°15'510.1
2018-May-18 19:01N 49°22' W 000°14'919.0
2018-May-18 18:31N 49°31' W 000°20'1019.2
2018-May-18 18:01N 49°40' W 000°27'918.8
2018-May-18 17:31N 49°48' W 000°32'918.8
2018-May-18 17:01N 49°57' W 000°36'918.7
2018-May-18 16:30N 50°06' W 000°41'918.9
2018-May-18 16:00N 50°15' W 000°46'1019.5
2018-May-18 15:30N 50°25' W 000°50'919.0
2018-May-18 15:00N 50°34' W 000°55'918.3
2018-May-18 14:30N 50°42' W 001°01'714.0
2018-May-18 14:00N 50°48' W 001°07'1 2.1
2018-May-18 13:30N 50°49' W 001°06'0 0.0
2018-May-18 13:00N 50°49' W 001°06'0 0.0
2018-May-18 12:30N 50°49' W 001°06'2 3.5
2018-May-18 12:00N 50°47' W 001°06'815.4
2018-May-18 11:31N 50°41' W 000°59'1019.8
2018-May-18 10:59N 50°31' W 000°55'1119.1
2018-May-18 10:26N 50°21' W 000°49'1118.6
2018-May-18 09:52N 50°11' W 000°42'718.7
2018-May-18 09:30N 50°05' W 000°38'918.4
2018-May-18 09:00N 49°56' W 000°34'918.6
2018-May-18 08:31N 49°48' W 000°29'1019.1
2018-May-18 08:01N 49°39' W 000°24'918.7
2018-May-18 07:31N 49°30' W 000°19'1019.1
2018-May-18 07:00N 49°21' W 000°15'3 6.7
2018-May-18 06:30N 49°17' W 000°15'0 0.0
2018-May-18 06:00N 49°17' W 000°15'0 0.0
2018-May-18 05:30N 49°17' W 000°15'0 0.0
2018-May-18 05:00N 49°17' W 000°15'0 0.1
2018-May-18 04:30N 49°17' W 000°15'714.8
2018-May-18 04:00N 49°25' W 000°14'917.1
2018-May-18 03:30N 49°33' W 000°19'816.6
2018-May-18 03:01N 49°40' W 000°24'816.7
2018-May-18 02:30N 49°48' W 000°29'817.0
2018-May-18 02:00N 49°56' W 000°33'816.9
2018-May-18 01:31N 50°04' W 000°38'817.0
2018-May-18 01:01N 50°12' W 000°42'917.2
2018-May-18 00:30N 50°20' W 000°47'917.4
2018-May-18 00:00N 50°28' W 000°52'917.2
2018-May-17 23:30N 50°36' W 000°57'816.3
2018-May-17 23:00N 50°44' W 001°02'611.4
2018-May-17 22:30N 50°49' W 001°07'1 1.0
2018-May-17 22:00N 50°49' W 001°06'0 0.0
2018-May-17 21:30N 50°49' W 001°06'0 0.0
2018-May-17 21:00N 50°49' W 001°06'0 0.0
2018-May-17 20:30N 50°49' W 001°06'1 2.2
2018-May-17 20:00N 50°48' W 001°07'714.2
2018-May-17 19:30N 50°43' W 000°59'918.5
2018-May-17 19:00N 50°34' W 000°57'1519.5
2018-May-17 18:13N 50°20' W 000°47'420.2
2018-May-17 18:00N 50°16' W 000°43'1019.8
2018-May-17 17:29N 50°06' W 000°38'1020.1
2018-May-17 17:00N 49°57' W 000°34'1020.2
2018-May-17 16:30N 49°47' W 000°29'1020.2
2018-May-17 16:00N 49°38' W 000°24'1019.8
2018-May-17 15:30N 49°28' W 000°19'1019.1
2018-May-17 15:01N 49°19' W 000°15'2 4.1
2018-May-17 14:30N 49°17' W 000°15'0 0.0
2018-May-17 14:00N 49°17' W 000°15'0 0.0
2018-May-17 13:30N 49°17' W 000°15'0 0.0
2018-May-17 13:00N 49°17' W 000°15'3 6.1
2018-May-17 12:30N 49°20' W 000°14'1019.6
2018-May-17 12:00N 49°30' W 000°17'1019.8
2018-May-17 11:30N 49°39' W 000°22'1020.1
2018-May-17 11:00N 49°49' W 000°28'1020.5
2018-May-17 10:30N 49°58' W 000°35'1020.8
2018-May-17 10:00N 50°07' W 000°43'1020.3
2018-May-17 09:31N 50°16' W 000°49'1019.9
2018-May-17 09:00N 50°26' W 000°54'1019.9
2018-May-17 08:30N 50°35' W 000°58'816.3
2018-May-17 08:00N 50°43' W 001°01'612.4
2018-May-17 07:30N 50°49' W 001°06'0 0.5
2018-May-17 07:00N 50°49' W 001°06'0 0.0
2018-May-17 06:31N 50°49' W 001°06'0 0.0
2018-May-17 06:01N 50°49' W 001°06'0 0.6
2018-May-17 05:30N 50°49' W 001°06'611.3
2018-May-17 05:00N 50°44' W 001°02'714.6
2018-May-17 04:31N 50°37' W 000°57'815.5
2018-May-17 04:01N 50°30' W 000°53'815.2
2018-May-17 03:30N 50°23' W 000°49'815.2
2018-May-17 03:00N 50°15' W 000°46'815.6
2018-May-17 02:29N 50°08' W 000°41'611.3
2018-May-17 01:55N 50°02' W 000°37'410.8
2018-May-17 01:31N 49°58' W 000°34'510.8
2018-May-17 01:00N 49°53' W 000°31'510.7
2018-May-17 00:30N 49°48' W 000°28'510.7
2018-May-17 00:00N 49°43' W 000°25'510.3
2018-May-16 23:31N 49°38' W 000°23'5 9.8
2018-May-16 23:01N 49°33' W 000°21'510.0
2018-May-16 22:30N 49°28' W 000°19'5 9.8
2018-May-16 22:00N 49°24' W 000°16'5 9.7
2018-May-16 21:31N 49°19' W 000°15'2 3.5
2018-May-16 21:00N 49°17' W 000°15'0 0.0
2018-May-16 20:30N 49°17' W 000°15'0 0.0
2018-May-16 20:00N 49°17' W 000°15'0 0.0
2018-May-16 19:30N 49°17' W 000°15'0 0.0
2018-May-16 19:00N 49°17' W 000°15'0 0.0
2018-May-16 18:30N 49°17' W 000°15'0 0.0
2018-May-16 18:00N 49°17' W 000°15'0 0.0
2018-May-16 17:30N 49°17' W 000°15'0 0.0
2018-May-16 17:00N 49°17' W 000°15'0 0.0
2018-May-16 16:30N 49°17' W 000°15'0 0.0
2018-May-16 16:00N 49°17' W 000°15'0 0.0
2018-May-16 15:30N 49°17' W 000°15'0 0.0
2018-May-16 15:00N 49°17' W 000°15'0 0.0
2018-May-16 14:30N 49°17' W 000°15'0 0.0
2018-May-16 14:00N 49°17' W 000°15'0 0.0
2018-May-16 13:30N 49°17' W 000°15'0 0.0
2018-May-16 13:00N 49°17' W 000°15'4 7.6
2018-May-16 12:31N 49°21' W 000°14'816.9
2018-May-16 12:00N 49°29' W 000°19'918.1
2018-May-16 11:31N 49°37' W 000°25'918.6
2018-May-16 11:01N 49°46' W 000°30'918.8
2018-May-16 10:30N 49°55' W 000°35'918.9
2018-May-16 10:00N 50°04' W 000°39'918.7
2018-May-16 09:31N 50°13' W 000°44'1018.8
2018-May-16 09:00N 50°21' W 000°50'918.8
2018-May-16 08:30N 50°30' W 000°56'917.8
2018-May-16 08:01N 50°39' W 000°59'816.8
2018-May-16 07:31N 50°46' W 001°05'3 5.5
2018-May-16 07:01N 50°49' W 001°06'0 0.0
2018-May-16 06:31N 50°49' W 001°06'0 0.0
2018-May-16 06:00N 50°49' W 001°06'0 0.7
2018-May-16 05:30N 50°49' W 001°06'611.9
2018-May-16 05:00N 50°43' W 001°02'815.0
2018-May-16 04:30N 50°37' W 000°57'815.5
2018-May-16 04:00N 50°29' W 000°54'815.2
2018-May-16 03:30N 50°22' W 000°51'612.6
2018-May-16 03:00N 50°16' W 000°48'611.4
2018-May-16 02:31N 50°10' W 000°45'611.7
2018-May-16 02:00N 50°05' W 000°42'712.1
2018-May-16 01:28N 49°59' W 000°38'612.4
2018-May-16 01:00N 49°53' W 000°35'612.3
2018-May-16 00:30N 49°48' W 000°31'611.7
2018-May-16 00:00N 49°42' W 000°28'611.4
2018-May-15 23:30N 49°37' W 000°24'611.0
2018-May-15 23:00N 49°32' W 000°21'510.7
2018-May-15 22:30N 49°27' W 000°17'510.4
2018-May-15 22:00N 49°22' W 000°15'510.0
2018-May-15 21:30N 49°17' W 000°15'0 0.1
2018-May-15 21:00N 49°17' W 000°15'0 0.0
2018-May-15 20:30N 49°17' W 000°15'0 0.0
2018-May-15 20:00N 49°17' W 000°15'0 0.1
2018-May-15 19:30N 49°17' W 000°15'715.0
2018-May-15 19:00N 49°25' W 000°15'1020.9
2018-May-15 18:30N 49°35' W 000°21'1121.1
2018-May-15 18:01N 49°44' W 000°28'1020.8
2018-May-15 17:30N 49°54' W 000°32'1020.1
2018-May-15 17:00N 50°03' W 000°38'1019.8
2018-May-15 16:31N 50°12' W 000°44'1019.8
2018-May-15 16:00N 50°22' W 000°50'1019.8
2018-May-15 15:30N 50°31' W 000°54'1019.8
2018-May-15 15:00N 50°41' W 000°58'816.8
2018-May-15 14:30N 50°47' W 001°07'1 2.9
2018-May-15 14:01N 50°49' W 001°06'0 0.0
2018-May-15 13:30N 50°49' W 001°06'0 0.0
2018-May-15 13:00N 50°49' W 001°06'2 3.1
2018-May-15 12:30N 50°47' W 001°06'917.3
2018-May-15 12:00N 50°40' W 000°59'1019.7
2018-May-15 11:30N 50°31' W 000°53'1019.7
2018-May-15 11:00N 50°22' W 000°46'1019.8
2018-May-15 10:30N 50°12' W 000°44'1019.2
2018-May-15 10:00N 50°03' W 000°39'1019.0
2018-May-15 09:30N 49°54' W 000°34'918.9
2018-May-15 09:00N 49°45' W 000°28'919.0
2018-May-15 08:31N 49°37' W 000°23'918.9
2018-May-15 08:00N 49°28' W 000°18'918.0
2018-May-15 07:31N 49°19' W 000°15'2 3.5
2018-May-15 07:00N 49°17' W 000°15'0 0.0
2018-May-15 06:30N 49°17' W 000°15'0 0.0
2018-May-15 06:00N 49°17' W 000°15'0 0.0
2018-May-15 05:30N 49°17' W 000°15'3 5.3
2018-May-15 05:00N 49°20' W 000°14'816.8
2018-May-15 04:30N 49°28' W 000°17'816.9
2018-May-15 04:00N 49°36' W 000°21'917.2
2018-May-15 03:30N 49°44' W 000°26'917.2
2018-May-15 03:00N 49°52' W 000°31'917.1
2018-May-15 02:30N 50°00' W 000°36'816.5
2018-May-15 02:00N 50°08' W 000°41'816.5
2018-May-15 01:30N 50°15' W 000°46'917.2
2018-May-15 01:01N 50°24' W 000°49'816.6
2018-May-15 00:30N 50°31' W 000°55'817.0
2018-May-15 00:00N 50°39' W 000°59'815.6
2018-May-14 23:30N 50°46' W 001°05'3 5.7
2018-May-14 23:00N 50°49' W 001°06'0 0.0
2018-May-14 22:30N 50°49' W 001°06'0 0.0
2018-May-14 22:00N 50°49' W 001°06'2 4.4
2018-May-14 21:31N 50°47' W 001°06'713.6
2018-May-14 21:00N 50°40' W 001°04'1020.3
2018-May-14 20:31N 50°30' W 001°09'1020.6
2018-May-14 20:01N 50°20' W 001°13'1020.9
2018-May-14 19:31N 50°10' W 001°18'1020.9
2018-May-14 19:01N 50°00' W 001°24'1020.7
2018-May-14 18:31N 49°51' W 001°29'1020.4
2018-May-14 18:01N 49°41' W 001°35'2 4.9
2018-May-14 17:31N 49°39' W 001°37'0 0.0
2018-May-14 17:01N 49°39' W 001°37'0 0.0
2018-May-14 16:30N 49°39' W 001°37'0 0.0
2018-May-14 16:00N 49°39' W 001°37'0 0.0
2018-May-14 15:31N 49°39' W 001°37'0 0.0
2018-May-14 15:00N 49°39' W 001°37'0 0.0
2018-May-14 14:30N 49°39' W 001°37'0 0.0
2018-May-14 14:00N 49°39' W 001°37'2 3.3
2018-May-14 13:30N 49°40' W 001°39'510.2
2018-May-14 13:01N 49°44' W 001°34'917.3
2018-May-14 12:30N 49°48' W 001°22'816.4
2018-May-14 12:00N 49°52' W 001°11'815.9
2018-May-14 11:30N 49°55' W 000°59'815.1
2018-May-14 11:00N 49°57' W 000°48'713.7
2018-May-14 10:30N 49°60' W 000°38'713.9
2018-May-14 10:00N 50°06' W 000°42'917.1
2018-May-14 09:30N 50°14' W 000°47'1019.9
2018-May-14 09:01N 50°24' W 000°52'1020.0
2018-May-14 08:30N 50°33' W 000°56'918.9
2018-May-14 08:00N 50°42' W 001°01'714.5
2018-May-14 07:31N 50°49' W 001°07'1 1.2
2018-May-14 07:00N 50°49' W 001°06'0 0.0
2018-May-14 06:30N 50°49' W 001°06'0 0.0
2018-May-14 06:00N 50°49' W 001°06'0 0.9
2018-May-14 05:30N 50°49' W 001°07'611.7
2018-May-14 05:01N 50°44' W 001°02'714.9
2018-May-14 04:31N 50°37' W 000°57'815.4
2018-May-14 04:01N 50°29' W 000°53'612.5
2018-May-14 03:30N 50°24' W 000°50'510.3
2018-May-14 03:01N 50°19' W 000°47'510.7
2018-May-14 02:30N 50°14' W 000°45'510.8
2018-May-14 02:01N 50°08' W 000°42'611.0
2018-May-14 01:30N 50°03' W 000°40'611.6
2018-May-14 00:59N 49°58' W 000°36'611.6
2018-May-14 00:31N 49°53' W 000°33'611.5
2018-May-14 00:00N 49°47' W 000°29'611.3
2018-May-13 23:30N 49°42' W 000°26'611.4
2018-May-13 23:01N 49°37' W 000°22'611.0
2018-May-13 22:31N 49°32' W 000°20'  
Track history (hours):
 
Tides and Currents Weather Stations Pressure Air Temp Water Temp Dewpoint Dewpoint Depression Visibility Wind Speed Wind Dir Waves Ship Positions

Normandie

Operator: Brittany Ferries

Last reported at 2018-May-23 22:30 UTC. Time now 2018-May-23 22:32 UTC.
Position N 49°17' W 000°15'.

Length 161 m; beam 27 m.

Type: Passenger vessel. MMSI: 227273000.

Date/timePositionNaut miles runAvg speedWind from/ knotsBaromVisibWave heightAir tempDewpointWater temp
2018-May-23 22:30N 49°17' W 000°15'0 0.0
2018-May-23 22:01N 49°17' W 000°15'0 0.0
2018-May-23 21:31N 49°17' W 000°15'0 0.0
2018-May-23 21:01N 49°17' W 000°15'0 0.0
2018-May-23 20:30N 49°17' W 000°15'0 0.0
2018-May-23 20:01N 49°17' W 000°15'0 0.0
2018-May-23 19:31N 49°17' W 000°15'0 0.0
2018-May-23 19:01N 49°17' W 000°15'0 0.0
2018-May-23 18:30N 49°17' W 000°15'0 0.0
2018-May-23 18:00N 49°17' W 000°15'0 0.0
2018-May-23 17:30N 49°17' W 000°15'0 0.0
2018-May-23 17:00N 49°17' W 000°15'0 0.0
2018-May-23 16:30N 49°17' W 000°15'0 0.0
2018-May-23 16:00N 49°17' W 000°15'0 0.0
2018-May-23 15:31N 49°17' W 000°15'0 0.0
2018-May-23 15:00N 49°17' W 000°15'0 0.0
2018-May-23 14:30N 49°17' W 000°15'0 0.0
2018-May-23 14:00N 49°17' W 000°15'0 0.0
2018-May-23 13:30N 49°17' W 000°15'0 0.2
2018-May-23 13:01N 49°17' W 000°15'611.1
2018-May-23 12:31N 49°23' W 000°14'714.1
2018-May-23 12:01N 49°29' W 000°17'1019.5
2018-May-23 11:30N 49°39' W 000°22'1019.4
2018-May-23 11:00N 49°48' W 000°27'1019.4
2018-May-23 10:31N 49°57' W 000°33'1019.0
2018-May-23 10:00N 50°06' W 000°39'919.1
2018-May-23 09:31N 50°14' W 000°44'1019.6
2018-May-23 09:00N 50°24' W 000°49'1019.3
2018-May-23 08:30N 50°33' W 000°54'1019.2
2018-May-23 08:00N 50°42' W 001°00'714.5
2018-May-23 07:30N 50°47' W 001°07'1 2.6
2018-May-23 07:00N 50°49' W 001°06'0 0.0
2018-May-23 06:30N 50°49' W 001°06'0 0.0
2018-May-23 06:00N 50°49' W 001°06'0 0.2
2018-May-23 05:31N 50°49' W 001°06'510.0
2018-May-23 05:01N 50°44' W 001°04'816.9
2018-May-23 04:31N 50°36' W 000°57'815.7
2018-May-23 04:00N 50°29' W 000°52'915.7
2018-May-23 03:26N 50°21' W 000°48'715.8
2018-May-23 03:00N 50°14' W 000°47'714.4
2018-May-23 02:30N 50°07' W 000°43'510.3
2018-May-23 02:00N 50°02' W 000°41'510.3
2018-May-23 01:30N 49°57' W 000°39'510.1
2018-May-23 01:00N 49°52' W 000°37'510.3
2018-May-23 00:30N 49°48' W 000°33'510.8
2018-May-23 00:00N 49°43' W 000°29'511.0
2018-May-22 23:30N 49°38' W 000°25'611.1
2018-May-22 23:00N 49°33' W 000°21'611.1
2018-May-22 22:30N 49°28' W 000°19'611.2
2018-May-22 22:00N 49°23' W 000°16'510.7
2018-May-22 21:30N 49°17' W 000°15'0 0.2
2018-May-22 21:00N 49°17' W 000°15'0 0.0
2018-May-22 20:30N 49°17' W 000°15'0 0.0
2018-May-22 20:00N 49°17' W 000°15'0 0.0
2018-May-22 19:30N 49°17' W 000°15'3 6.7
2018-May-22 19:00N 49°21' W 000°14'918.8
2018-May-22 18:31N 49°30' W 000°18'1019.7
2018-May-22 18:00N 49°39' W 000°23'1019.9
2018-May-22 17:30N 49°49' W 000°27'1020.0
2018-May-22 17:00N 49°58' W 000°33'1020.1
2018-May-22 16:30N 50°07' W 000°38'1020.1
2018-May-22 16:00N 50°17' W 000°45'1020.2
2018-May-22 15:30N 50°26' W 000°51'1019.8
2018-May-22 15:00N 50°35' W 000°56'917.7
2018-May-22 14:31N 50°43' W 001°03'612.0
2018-May-22 14:00N 50°49' W 001°07'1 1.1
2018-May-22 13:30N 50°49' W 001°06'0 0.0
2018-May-22 13:00N 50°49' W 001°06'0 0.0
2018-May-22 12:30N 50°49' W 001°06'0 0.8
2018-May-22 12:00N 50°49' W 001°06'611.4
2018-May-22 11:30N 50°44' W 001°02'816.4
2018-May-22 11:00N 50°36' W 000°57'917.8
2018-May-22 10:30N 50°28' W 000°50'1018.0
2018-May-22 09:58N 50°19' W 000°45'918.8
2018-May-22 09:30N 50°11' W 000°40'1019.6
2018-May-22 09:00N 50°01' W 000°37'1020.1
2018-May-22 08:30N 49°52' W 000°33'1020.1
2018-May-22 08:00N 49°42' W 000°29'1020.1
2018-May-22 07:31N 49°33' W 000°21'1020.0
2018-May-22 07:00N 49°24' W 000°16'713.2
2018-May-22 06:30N 49°17' W 000°15'0 0.0
2018-May-22 06:00N 49°17' W 000°15'0 0.0
2018-May-22 05:30N 49°17' W 000°15'0 0.0
2018-May-22 05:00N 49°17' W 000°15'0 0.3
2018-May-22 04:31N 49°17' W 000°15'714.8
2018-May-22 04:00N 49°25' W 000°15'918.3
2018-May-22 03:30N 49°33' W 000°20'917.1
2018-May-22 03:00N 49°41' W 000°25'816.3
2018-May-22 02:30N 49°49' W 000°29'816.2
2018-May-22 02:00N 49°57' W 000°33'816.0
2018-May-22 01:30N 50°04' W 000°37'815.9
2018-May-22 01:00N 50°12' W 000°41'816.0
2018-May-22 00:30N 50°19' W 000°46'815.8
2018-May-21 23:59N 50°27' W 000°51'816.0
2018-May-21 23:30N 50°34' W 000°56'715.0
2018-May-21 23:00N 50°41' W 000°58'713.1
2018-May-21 22:30N 50°46' W 001°05'3 6.0
2018-May-21 22:00N 50°49' W 001°06'0 0.0
2018-May-21 21:30N 50°49' W 001°06'0 0.0
2018-May-21 21:00N 50°49' W 001°06'0 0.0
2018-May-21 20:30N 50°49' W 001°06'1 1.9
2018-May-21 20:00N 50°48' W 001°07'612.5
2018-May-21 19:30N 50°43' W 001°01'917.0
2018-May-21 19:00N 50°35' W 000°57'1019.5
2018-May-21 18:30N 50°25' W 000°54'1019.4
2018-May-21 18:00N 50°17' W 000°47'1019.7
2018-May-21 17:30N 50°08' W 000°40'1019.8
2018-May-21 17:01N 49°58' W 000°37'1020.0
2018-May-21 16:30N 49°49' W 000°31'1019.8
2018-May-21 16:01N 49°40' W 000°25'1019.4
2018-May-21 15:30N 49°31' W 000°20'918.9
2018-May-21 15:00N 49°22' W 000°15'4 8.8
2018-May-21 14:30N 49°17' W 000°15'0 0.0
2018-May-21 14:00N 49°17' W 000°15'0 0.0
2018-May-21 13:30N 49°17' W 000°15'0 0.0
2018-May-21 13:00N 49°17' W 000°15'2 4.4
2018-May-21 12:31N 49°20' W 000°15'1019.2
2018-May-21 12:01N 49°29' W 000°17'1020.4
2018-May-21 11:31N 49°38' W 000°24'1020.7
2018-May-21 11:01N 49°47' W 000°31'1020.5
2018-May-21 10:31N 49°57' W 000°39'1020.2
2018-May-21 10:01N 50°06' W 000°45'1019.8
2018-May-21 09:29N 50°15' W 000°51'1519.6
2018-May-21 08:42N 50°30' W 000°60'419.7
2018-May-21 08:31N 50°33' W 001°01'918.0
2018-May-21 08:00N 50°42' W 000°59'713.7
2018-May-21 07:30N 50°47' W 001°06'2 3.0
2018-May-21 07:00N 50°49' W 001°06'0 0.0
2018-May-21 06:30N 50°49' W 001°06'0 0.0
2018-May-21 06:00N 50°49' W 001°06'0 0.2
2018-May-21 05:30N 50°49' W 001°06'5 9.6
2018-May-21 05:00N 50°44' W 001°04'816.3
2018-May-21 04:30N 50°37' W 000°57'815.2
2018-May-21 04:01N 50°30' W 000°51'815.5
2018-May-21 03:31N 50°23' W 000°46'815.7
2018-May-21 03:01N 50°16' W 000°44'815.6
2018-May-21 02:31N 50°09' W 000°40'815.4
2018-May-21 02:00N 50°01' W 000°35'815.3
2018-May-21 01:30N 49°54' W 000°30'815.4
2018-May-21 01:00N 49°47' W 000°27'713.7
2018-May-21 00:30N 49°40' W 000°24'510.1
2018-May-21 00:01N 49°35' W 000°23'510.5
2018-May-20 23:31N 49°30' W 000°21'510.2
2018-May-20 23:01N 49°26' W 000°18'5 9.9
2018-May-20 22:31N 49°21' W 000°15'4 7.6
2018-May-20 22:00N 49°17' W 000°15'0 0.1
2018-May-20 21:30N 49°17' W 000°15'0 0.0
2018-May-20 21:01N 49°17' W 000°15'0 0.0
2018-May-20 20:31N 49°17' W 000°15'0 0.0
2018-May-20 20:01N 49°17' W 000°15'0 0.0
2018-May-20 19:31N 49°17' W 000°15'3 5.0
2018-May-20 19:00N 49°20' W 000°14'917.8
2018-May-20 18:30N 49°28' W 000°20'919.0
2018-May-20 18:00N 49°37' W 000°23'918.7
2018-May-20 17:30N 49°46' W 000°28'918.4
2018-May-20 17:00N 49°55' W 000°33'918.4
2018-May-20 16:30N 50°03' W 000°38'918.5
2018-May-20 16:00N 50°12' W 000°42'918.7
2018-May-20 15:30N 50°21' W 000°47'1019.1
2018-May-20 15:00N 50°30' W 000°53'918.8
2018-May-20 14:30N 50°38' W 000°59'917.4
2018-May-20 14:00N 50°46' W 001°05'3 5.3
2018-May-20 13:30N 50°49' W 001°06'0 0.0
2018-May-20 13:00N 50°49' W 001°06'0 0.0
2018-May-20 12:30N 50°49' W 001°06'1 1.1
2018-May-20 12:00N 50°49' W 001°07'613.0
2018-May-20 11:30N 50°43' W 001°01'918.2
2018-May-20 11:00N 50°34' W 000°57'1118.6
2018-May-20 10:26N 50°25' W 000°50'818.6
2018-May-20 10:00N 50°17' W 000°46'1019.0
2018-May-20 09:30N 50°08' W 000°40'1019.4
2018-May-20 09:00N 49°59' W 000°36'1019.5
2018-May-20 08:30N 49°49' W 000°32'1019.8
2018-May-20 08:00N 49°40' W 000°27'1019.9
2018-May-20 07:30N 49°31' W 000°21'1020.0
2018-May-20 07:00N 49°22' W 000°15'5 9.0
2018-May-20 06:30N 49°17' W 000°15'0 0.0
2018-May-20 06:00N 49°17' W 000°15'0 0.0
2018-May-20 05:30N 49°17' W 000°15'0 0.0
2018-May-20 05:00N 49°17' W 000°15'0 0.3
2018-May-20 04:31N 49°17' W 000°15'611.9
2018-May-20 04:00N 49°23' W 000°14'815.3
2018-May-20 03:30N 49°30' W 000°20'815.7
2018-May-20 03:00N 49°37' W 000°25'815.2
2018-May-20 02:30N 49°45' W 000°27'815.3
2018-May-20 02:00N 49°52' W 000°31'815.6
2018-May-20 01:31N 49°59' W 000°35'815.8
2018-May-20 01:00N 50°07' W 000°39'815.7
2018-May-20 00:30N 50°14' W 000°43'1015.4
2018-May-19 23:51N 50°23' W 000°49'615.7
2018-May-19 23:28N 50°29' W 000°53'715.4
2018-May-19 23:00N 50°35' W 000°57'714.9
2018-May-19 22:30N 50°42' W 001°01'713.2
2018-May-19 22:00N 50°48' W 001°07'1 2.0
2018-May-19 21:30N 50°49' W 001°06'0 0.0
2018-May-19 21:01N 50°49' W 001°06'0 0.0
2018-May-19 20:31N 50°49' W 001°06'1 1.1
2018-May-19 20:00N 50°49' W 001°07'611.5
2018-May-19 19:30N 50°44' W 001°02'816.4
2018-May-19 19:01N 50°36' W 000°57'917.5
2018-May-19 18:30N 50°28' W 000°53'917.4
2018-May-19 18:00N 50°19' W 000°50'917.8
2018-May-19 17:30N 50°11' W 000°46'918.2
2018-May-19 17:00N 50°02' W 000°40'918.4
2018-May-19 16:30N 49°54' W 000°34'918.3
2018-May-19 16:01N 49°45' W 000°29'918.8
2018-May-19 15:31N 49°37' W 000°24'918.3
2018-May-19 15:00N 49°28' W 000°18'917.8
2018-May-19 14:30N 49°20' W 000°14'2 4.6
2018-May-19 14:01N 49°17' W 000°15'0 0.0
2018-May-19 13:30N 49°17' W 000°15'0 0.0
2018-May-19 13:01N 49°17' W 000°15'3 5.2
2018-May-19 12:30N 49°20' W 000°14'918.3
2018-May-19 12:00N 49°29' W 000°17'918.2
2018-May-19 11:31N 49°37' W 000°22'918.6
2018-May-19 11:00N 49°46' W 000°29'918.8
2018-May-19 10:30N 49°54' W 000°34'1020.6
2018-May-19 10:00N 50°03' W 000°42'1119.9
2018-May-19 09:27N 50°14' W 000°47'919.8
2018-May-19 09:01N 50°22' W 000°52'1019.7
2018-May-19 08:29N 50°32' W 000°55'918.9
2018-May-19 08:01N 50°41' W 000°58'815.7
2018-May-19 07:31N 50°47' W 001°06'2 3.6
2018-May-19 07:00N 50°49' W 001°06'0 0.0
2018-May-19 06:30N 50°49' W 001°06'0 0.0
2018-May-19 06:00N 50°49' W 001°06'0 0.5
2018-May-19 05:30N 50°49' W 001°06'5 9.9
2018-May-19 05:00N 50°44' W 001°04'815.8
2018-May-19 04:31N 50°37' W 000°58'816.2
2018-May-19 04:00N 50°30' W 000°53'816.0
2018-May-19 03:30N 50°22' W 000°48'816.0
2018-May-19 03:00N 50°15' W 000°44'612.2
2018-May-19 02:31N 50°09' W 000°41'611.6
2018-May-19 02:00N 50°04' W 000°37'611.2
2018-May-19 01:29N 49°58' W 000°34'510.9
2018-May-19 01:00N 49°53' W 000°31'510.8
2018-May-19 00:31N 49°48' W 000°29'510.7
2018-May-19 00:00N 49°43' W 000°26'510.7
2018-May-18 23:31N 49°38' W 000°24'510.5
2018-May-18 23:00N 49°33' W 000°21'510.2
2018-May-18 22:30N 49°28' W 000°17'510.2
2018-May-18 22:00N 49°24' W 000°14'510.1
2018-May-18 21:30N 49°19' W 000°15'1 2.6
2018-May-18 21:00N 49°17' W 000°15'0 0.0
2018-May-18 20:30N 49°17' W 000°15'0 0.0
2018-May-18 20:00N 49°17' W 000°15'0 0.2
2018-May-18 19:30N 49°17' W 000°15'510.1
2018-May-18 19:01N 49°22' W 000°14'919.0
2018-May-18 18:31N 49°31' W 000°20'1019.2
2018-May-18 18:01N 49°40' W 000°27'918.8
2018-May-18 17:31N 49°48' W 000°32'918.8
2018-May-18 17:01N 49°57' W 000°36'918.7
2018-May-18 16:30N 50°06' W 000°41'918.9
2018-May-18 16:00N 50°15' W 000°46'1019.5
2018-May-18 15:30N 50°25' W 000°50'919.0
2018-May-18 15:00N 50°34' W 000°55'918.3
2018-May-18 14:30N 50°42' W 001°01'714.0
2018-May-18 14:00N 50°48' W 001°07'1 2.1
2018-May-18 13:30N 50°49' W 001°06'0 0.0
2018-May-18 13:00N 50°49' W 001°06'0 0.0
2018-May-18 12:30N 50°49' W 001°06'2 3.5
2018-May-18 12:00N 50°47' W 001°06'815.4
2018-May-18 11:31N 50°41' W 000°59'1019.8
2018-May-18 10:59N 50°31' W 000°55'1119.1
2018-May-18 10:26N 50°21' W 000°49'1118.6
2018-May-18 09:52N 50°11' W 000°42'718.7
2018-May-18 09:30N 50°05' W 000°38'918.4
2018-May-18 09:00N 49°56' W 000°34'918.6
2018-May-18 08:31N 49°48' W 000°29'1019.1
2018-May-18 08:01N 49°39' W 000°24'918.7
2018-May-18 07:31N 49°30' W 000°19'1019.1
2018-May-18 07:00N 49°21' W 000°15'3 6.7
2018-May-18 06:30N 49°17' W 000°15'0 0.0
2018-May-18 06:00N 49°17' W 000°15'0 0.0
2018-May-18 05:30N 49°17' W 000°15'0 0.0
2018-May-18 05:00N 49°17' W 000°15'0 0.1
2018-May-18 04:30N 49°17' W 000°15'714.8
2018-May-18 04:00N 49°25' W 000°14'917.1
2018-May-18 03:30N 49°33' W 000°19'816.6
2018-May-18 03:01N 49°40' W 000°24'816.7
2018-May-18 02:30N 49°48' W 000°29'817.0
2018-May-18 02:00N 49°56' W 000°33'816.9
2018-May-18 01:31N 50°04' W 000°38'817.0
2018-May-18 01:01N 50°12' W 000°42'917.2
2018-May-18 00:30N 50°20' W 000°47'917.4
2018-May-18 00:00N 50°28' W 000°52'917.2
2018-May-17 23:30N 50°36' W 000°57'816.3
2018-May-17 23:00N 50°44' W 001°02'611.4
2018-May-17 22:30N 50°49' W 001°07'1 1.0
2018-May-17 22:00N 50°49' W 001°06'0 0.0
2018-May-17 21:30N 50°49' W 001°06'0 0.0
2018-May-17 21:00N 50°49' W 001°06'0 0.0
2018-May-17 20:30N 50°49' W 001°06'1 2.2
2018-May-17 20:00N 50°48' W 001°07'714.2
2018-May-17 19:30N 50°43' W 000°59'918.5
2018-May-17 19:00N 50°34' W 000°57'1519.5
2018-May-17 18:13N 50°20' W 000°47'420.2
2018-May-17 18:00N 50°16' W 000°43'1019.8
2018-May-17 17:29N 50°06' W 000°38'1020.1
2018-May-17 17:00N 49°57' W 000°34'1020.2
2018-May-17 16:30N 49°47' W 000°29'1020.2
2018-May-17 16:00N 49°38' W 000°24'1019.8
2018-May-17 15:30N 49°28' W 000°19'1019.1
2018-May-17 15:01N 49°19' W 000°15'2 4.1
2018-May-17 14:30N 49°17' W 000°15'0 0.0
2018-May-17 14:00N 49°17' W 000°15'0 0.0
2018-May-17 13:30N 49°17' W 000°15'0 0.0
2018-May-17 13:00N 49°17' W 000°15'3 6.1
2018-May-17 12:30N 49°20' W 000°14'1019.6
2018-May-17 12:00N 49°30' W 000°17'1019.8
2018-May-17 11:30N 49°39' W 000°22'1020.1
2018-May-17 11:00N 49°49' W 000°28'1020.5
2018-May-17 10:30N 49°58' W 000°35'1020.8
2018-May-17 10:00N 50°07' W 000°43'1020.3
2018-May-17 09:31N 50°16' W 000°49'1019.9
2018-May-17 09:00N 50°26' W 000°54'1019.9
2018-May-17 08:30N 50°35' W 000°58'816.3
2018-May-17 08:00N 50°43' W 001°01'612.4
2018-May-17 07:30N 50°49' W 001°06'0 0.5
2018-May-17 07:00N 50°49' W 001°06'0 0.0
2018-May-17 06:31N 50°49' W 001°06'0 0.0
2018-May-17 06:01N 50°49' W 001°06'0 0.6
2018-May-17 05:30N 50°49' W 001°06'611.3
2018-May-17 05:00N 50°44' W 001°02'714.6
2018-May-17 04:31N 50°37' W 000°57'815.5
2018-May-17 04:01N 50°30' W 000°53'815.2
2018-May-17 03:30N 50°23' W 000°49'815.2
2018-May-17 03:00N 50°15' W 000°46'815.6
2018-May-17 02:29N 50°08' W 000°41'611.3
2018-May-17 01:55N 50°02' W 000°37'410.8
2018-May-17 01:31N 49°58' W 000°34'510.8
2018-May-17 01:00N 49°53' W 000°31'510.7
2018-May-17 00:30N 49°48' W 000°28'510.7
2018-May-17 00:00N 49°43' W 000°25'510.3
2018-May-16 23:31N 49°38' W 000°23'5 9.8
2018-May-16 23:01N 49°33' W 000°21'510.0
2018-May-16 22:30N 49°28' W 000°19'5 9.8
2018-May-16 22:00N 49°24' W 000°16'5 9.7
2018-May-16 21:31N 49°19' W 000°15'2 3.5
2018-May-16 21:00N 49°17' W 000°15'0 0.0
2018-May-16 20:30N 49°17' W 000°15'0 0.0
2018-May-16 20:00N 49°17' W 000°15'0 0.0
2018-May-16 19:30N 49°17' W 000°15'0 0.0
2018-May-16 19:00N 49°17' W 000°15'0 0.0
2018-May-16 18:30N 49°17' W 000°15'0 0.0
2018-May-16 18:00N 49°17' W 000°15'0 0.0
2018-May-16 17:30N 49°17' W 000°15'0 0.0
2018-May-16 17:00N 49°17' W 000°15'0 0.0
2018-May-16 16:30N 49°17' W 000°15'0 0.0
2018-May-16 16:00N 49°17' W 000°15'0 0.0
2018-May-16 15:30N 49°17' W 000°15'0 0.0
2018-May-16 15:00N 49°17' W 000°15'0 0.0
2018-May-16 14:30N 49°17' W 000°15'0 0.0
2018-May-16 14:00N 49°17' W 000°15'0 0.0
2018-May-16 13:30N 49°17' W 000°15'0 0.0
2018-May-16 13:00N 49°17' W 000°15'4 7.6
2018-May-16 12:31N 49°21' W 000°14'816.9
2018-May-16 12:00N 49°29' W 000°19'918.1
2018-May-16 11:31N 49°37' W 000°25'918.6
2018-May-16 11:01N 49°46' W 000°30'918.8
2018-May-16 10:30N 49°55' W 000°35'918.9
2018-May-16 10:00N 50°04' W 000°39'918.7
2018-May-16 09:31N 50°13' W 000°44'1018.8
2018-May-16 09:00N 50°21' W 000°50'918.8
2018-May-16 08:30N 50°30' W 000°56'917.8
2018-May-16 08:01N 50°39' W 000°59'816.8
2018-May-16 07:31N 50°46' W 001°05'3 5.5
2018-May-16 07:01N 50°49' W 001°06'0 0.0
2018-May-16 06:31N 50°49' W 001°06'0 0.0
2018-May-16 06:00N 50°49' W 001°06'0 0.7
2018-May-16 05:30N 50°49' W 001°06'611.9
2018-May-16 05:00N 50°43' W 001°02'815.0
2018-May-16 04:30N 50°37' W 000°57'815.5
2018-May-16 04:00N 50°29' W 000°54'815.2
2018-May-16 03:30N 50°22' W 000°51'612.6
2018-May-16 03:00N 50°16' W 000°48'611.4
2018-May-16 02:31N 50°10' W 000°45'611.7
2018-May-16 02:00N 50°05' W 000°42'712.1
2018-May-16 01:28N 49°59' W 000°38'612.4
2018-May-16 01:00N 49°53' W 000°35'612.3
2018-May-16 00:30N 49°48' W 000°31'611.7
2018-May-16 00:00N 49°42' W 000°28'611.4
2018-May-15 23:30N 49°37' W 000°24'611.0
2018-May-15 23:00N 49°32' W 000°21'510.7
2018-May-15 22:30N 49°27' W 000°17'510.4
2018-May-15 22:00N 49°22' W 000°15'510.0
2018-May-15 21:30N 49°17' W 000°15'0 0.1
2018-May-15 21:00N 49°17' W 000°15'0 0.0
2018-May-15 20:30N 49°17' W 000°15'0 0.0
2018-May-15 20:00N 49°17' W 000°15'0 0.1
2018-May-15 19:30N 49°17' W 000°15'715.0
2018-May-15 19:00N 49°25' W 000°15'1020.9
2018-May-15 18:30N 49°35' W 000°21'1121.1
2018-May-15 18:01N 49°44' W 000°28'1020.8
2018-May-15 17:30N 49°54' W 000°32'1020.1
2018-May-15 17:00N 50°03' W 000°38'1019.8
2018-May-15 16:31N 50°12' W 000°44'1019.8
2018-May-15 16:00N 50°22' W 000°50'1019.8
2018-May-15 15:30N 50°31' W 000°54'1019.8
2018-May-15 15:00N 50°41' W 000°58'816.8
2018-May-15 14:30N 50°47' W 001°07'1 2.9
2018-May-15 14:01N 50°49' W 001°06'0 0.0
2018-May-15 13:30N 50°49' W 001°06'0 0.0
2018-May-15 13:00N 50°49' W 001°06'2 3.1
2018-May-15 12:30N 50°47' W 001°06'917.3
2018-May-15 12:00N 50°40' W 000°59'1019.7
2018-May-15 11:30N 50°31' W 000°53'1019.7
2018-May-15 11:00N 50°22' W 000°46'1019.8
2018-May-15 10:30N 50°12' W 000°44'1019.2
2018-May-15 10:00N 50°03' W 000°39'1019.0
2018-May-15 09:30N 49°54' W 000°34'918.9
2018-May-15 09:00N 49°45' W 000°28'919.0
2018-May-15 08:31N 49°37' W 000°23'918.9
2018-May-15 08:00N 49°28' W 000°18'918.0
2018-May-15 07:31N 49°19' W 000°15'2 3.5
2018-May-15 07:00N 49°17' W 000°15'0 0.0
2018-May-15 06:30N 49°17' W 000°15'0 0.0
2018-May-15 06:00N 49°17' W 000°15'0 0.0
2018-May-15 05:30N 49°17' W 000°15'3 5.3
2018-May-15 05:00N 49°20' W 000°14'816.8
2018-May-15 04:30N 49°28' W 000°17'816.9
2018-May-15 04:00N 49°36' W 000°21'917.2
2018-May-15 03:30N 49°44' W 000°26'917.2
2018-May-15 03:00N 49°52' W 000°31'917.1
2018-May-15 02:30N 50°00' W 000°36'816.5
2018-May-15 02:00N 50°08' W 000°41'816.5
2018-May-15 01:30N 50°15' W 000°46'917.2
2018-May-15 01:01N 50°24' W 000°49'816.6
2018-May-15 00:30N 50°31' W 000°55'817.0
2018-May-15 00:00N 50°39' W 000°59'815.6
2018-May-14 23:30N 50°46' W 001°05'3 5.7
2018-May-14 23:00N 50°49' W 001°06'0 0.0
2018-May-14 22:30N 50°49' W 001°06'0 0.0
2018-May-14 22:00N 50°49' W 001°06'2 4.4
2018-May-14 21:31N 50°47' W 001°06'713.6
2018-May-14 21:00N 50°40' W 001°04'1020.3
2018-May-14 20:31N 50°30' W 001°09'1020.6
2018-May-14 20:01N 50°20' W 001°13'1020.9
2018-May-14 19:31N 50°10' W 001°18'1020.9
2018-May-14 19:01N 50°00' W 001°24'1020.7
2018-May-14 18:31N 49°51' W 001°29'1020.4
2018-May-14 18:01N 49°41' W 001°35'2 4.9
2018-May-14 17:31N 49°39' W 001°37'0 0.0
2018-May-14 17:01N 49°39' W 001°37'0 0.0
2018-May-14 16:30N 49°39' W 001°37'0 0.0
2018-May-14 16:00N 49°39' W 001°37'0 0.0
2018-May-14 15:31N 49°39' W 001°37'0 0.0
2018-May-14 15:00N 49°39' W 001°37'0 0.0
2018-May-14 14:30N 49°39' W 001°37'0 0.0
2018-May-14 14:00N 49°39' W 001°37'2 3.3
2018-May-14 13:30N 49°40' W 001°39'510.2
2018-May-14 13:01N 49°44' W 001°34'917.3
2018-May-14 12:30N 49°48' W 001°22'816.4
2018-May-14 12:00N 49°52' W 001°11'815.9
2018-May-14 11:30N 49°55' W 000°59'815.1
2018-May-14 11:00N 49°57' W 000°48'713.7
2018-May-14 10:30N 49°60' W 000°38'713.9
2018-May-14 10:00N 50°06' W 000°42'917.1
2018-May-14 09:30N 50°14' W 000°47'1019.9
2018-May-14 09:01N 50°24' W 000°52'1020.0
2018-May-14 08:30N 50°33' W 000°56'918.9
2018-May-14 08:00N 50°42' W 001°01'714.5
2018-May-14 07:31N 50°49' W 001°07'1 1.2
2018-May-14 07:00N 50°49' W 001°06'0 0.0
2018-May-14 06:30N 50°49' W 001°06'0 0.0
2018-May-14 06:00N 50°49' W 001°06'0 0.9
2018-May-14 05:30N 50°49' W 001°07'611.7
2018-May-14 05:01N 50°44' W 001°02'714.9
2018-May-14 04:31N 50°37' W 000°57'815.4
2018-May-14 04:01N 50°29' W 000°53'612.5
2018-May-14 03:30N 50°24' W 000°50'510.3
2018-May-14 03:01N 50°19' W 000°47'510.7
2018-May-14 02:30N 50°14' W 000°45'510.8
2018-May-14 02:01N 50°08' W 000°42'611.0
2018-May-14 01:30N 50°03' W 000°40'611.6
2018-May-14 00:59N 49°58' W 000°36'611.6
2018-May-14 00:31N 49°53' W 000°33'611.5
2018-May-14 00:00N 49°47' W 000°29'611.3
2018-May-13 23:30N 49°42' W 000°26'611.4
2018-May-13 23:01N 49°37' W 000°22'611.0
2018-May-13 22:31N 49°32' W 000°20'  

Dump ship's entire track history